3° Cross Duathlon de Salon Triathlon - 22/10/2017

Jeunes 12 à 15 ans

34 participants classés


Retour au Sommaire - Signaler une erreur - Faire défiler





Pl Do. Nom - Surname Prénom - Name S-Cat /cat TEMPS - Time /sx P1 Tps1 Vit1 P2 Tps2 Vit2 P3 Tps3 Vit3
1 439 PERINO MATHIEU MMI 1 0:28:35 1 1 00:05:47 20,7 1 00:19:23 17,0 1 00:03:24 17,6
2 434 HIBON LOUIS MMI 2 0:29:21 2 3 00:06:19 19,0 2 00:19:24 17,0 3 00:03:37 16,5
3 442 DALIGAUD LUKAS MMI 3 0:29:37 3 2 00:05:58 20,1 3 00:20:04 16,4 2 00:03:35 16,7
4 462 CLUTIER NOE MMI 4 0:31:06 4 4 00:06:32 18,3 7 00:20:35 16,0 6 00:03:58 15,1
5 447 ARNOUX AUGUSTIN MBE 1 0:31:26 5 10 00:06:48 17,6 4 00:20:15 16,3 18 00:04:22 13,7
6 459 BERCQ JUSTINE FMI 1 0:32:09 1 21 00:07:23 16,2 5 00:20:34 16,0 12 00:04:12 14,3
7 435 STERKERS ANOUK FMI 2 0:32:13 2 7 00:06:41 17,9 9 00:21:53 15,1 4 00:03:38 16,5
8 460 BAILET MATHILDE FMI 3 0:32:30 3 20 00:07:21 16,3 6 00:20:35 16,0 22 00:04:34 13,1
9 441 LAURENT CAMILLE FMI 4 0:32:38 4 8 00:06:44 17,8 11 00:21:59 15,0 5 00:03:54 15,3
10 429 BEZIERS BAPTISTE MBE 2 0:32:52 6 6 00:06:36 18,2 12 00:22:11 14,9 7 00:04:04 14,7
11 436 BARROCHE MARTIN MMI 5 0:33:03 7 13 00:06:56 17,3 10 00:21:56 15,0 10 00:04:11 14,3
12 444 ANTOINE SACHA MBE 3 0:33:30 8 17 00:07:16 16,5 8 00:21:27 15,4 27 00:04:47 12,5
13 430 GUILLAUME THOMAS MMI 6 0:34:11 9 5 00:06:34 18,2 14 00:23:22 14,1 14 00:04:14 14,1
14 427 EVEN KELLIAN MMI 7 0:34:52 10 9 00:06:47 17,7 16 00:23:54 13,8 9 00:04:10 14,4
15 428 VELI AXEL MBE 4 0:35:08 11 25 00:07:38 15,7 13 00:23:11 14,2 16 00:04:18 13,9
16 449 SORITA LIAM MBE 5 0:35:22 12 14 00:06:59 17,2 18 00:24:13 13,6 8 00:04:09 14,4
17 463 HECK MAREVA FBE 1 0:35:29 5 12 00:06:50 17,5 20 00:24:26 13,5 13 00:04:12 14,2
18 452 HANICHE ALEXANDRE MMI 8 0:35:39 13 24 00:07:35 15,8 15 00:23:37 14,0 19 00:04:26 13,5
19 437 SARNETTE ELIE MBE 6 0:35:40 14 19 00:07:19 16,4 17 00:24:03 13,7 15 00:04:18 13,9
20 448 MENAGER AMAURY MBE 7 0:36:03 15 11 00:06:50 17,5 22 00:25:01 13,2 11 00:04:12 14,3
21 450 DEVILLERS SAMUEL MBE 8 0:36:04 16 18 00:07:18 16,4 19 00:24:26 13,5 17 00:04:20 13,8
22 440 DIAZ EVA FMI 5 0:37:01 6 26 00:07:43 15,5 21 00:24:37 13,4 25 00:04:40 12,8
23 433 MARTINEZ MARGOT FBE 2 0:37:24 7 23 00:07:30 16,0 23 00:25:27 13,0 20 00:04:27 13,5
24 431 ALBANO ROMAIN MBE 9 0:39:35 17 22 00:07:26 16,1 25 00:27:33 12,0 23 00:04:35 13,1
25 446 SMAINE MARWANE MBE 10 0:40:01 18 27 00:07:46 15,4 26 00:27:42 11,9 21 00:04:32 13,2
26 455 ROUX CHARLOTTE FMI 6 0:40:05 8 16 00:07:15 16,5 30 00:28:03 11,8 26 00:04:47 12,5
27 456 ROUX AMELIE FMI 7 0:40:05 9 15 00:07:13 16,6 29 00:27:58 11,8 29 00:04:54 12,2
28 445 PELLISSIER ANTONIA FBE 3 0:40:46 10 32 00:08:14 14,6 28 00:27:52 11,8 24 00:04:40 12,9
29 458 BEGHOUACH ILIES MBE 11 0:41:16 19 33 00:08:15 14,5 24 00:27:00 12,2 34 00:06:00 10,0
30 443 ROSELLO CÉLIAN MBE 12 0:41:25 20 30 00:08:11 14,6 27 00:27:52 11,8 32 00:05:21 11,2
31 461 NICOLAS LOUISE FBE 4 0:41:39 11 31 00:08:12 14,6 31 00:28:39 11,5 28 00:04:47 12,5
32 451 WAGNER ROMAIN MBE 13 0:46:34 21 29 00:08:05 14,8 33 00:32:30 10,2 33 00:05:58 10,0
33 453 GREIN LUCIE FBE 5 0:46:37 12 34 00:09:09 13,1 32 00:32:27 10,2 31 00:05:00 12,0
34 432 SENEN LOUIS MBE 14 0:47:28 22 28 00:08:03 14,9 34 00:34:29 9,6 30 00:04:55 12,2

Aucun commentaires pour le moment, donnez votre avis, vos impressions avant, pendant! et après la course

Déjà membre? Identifiez-vous pour commenter l'épreuve ou créer un compte